createdAt,value
2018-05-26T00:00:15.110Z,1009.55
2018-05-26T00:01:15.078Z,1009.56
2018-05-26T00:02:15.117Z,1009.55
2018-05-26T00:03:15.005Z,1009.56
2018-05-26T00:04:15.071Z,1009.60
2018-05-26T00:05:15.007Z,1009.56
2018-05-26T00:06:15.083Z,1009.53
2018-05-26T00:07:15.117Z,1009.59
2018-05-26T00:08:15.122Z,1009.56
2018-05-26T00:09:15.130Z,1009.59
2018-05-26T00:10:15.026Z,1009.58
2018-05-26T00:11:15.031Z,1009.61
2018-05-26T00:12:15.157Z,1009.61
2018-05-26T00:13:15.069Z,1009.58
2018-05-26T00:14:15.018Z,1009.59
2018-05-26T00:15:15.107Z,1009.59
2018-05-26T00:16:15.063Z,1009.53
2018-05-26T00:17:15.054Z,1009.55
2018-05-26T00:18:15.123Z,1009.60
2018-05-26T00:19:15.031Z,1009.59
2018-05-26T00:20:15.054Z,1009.60
2018-05-26T00:21:15.031Z,1009.61
2018-05-26T00:22:15.026Z,1009.62
2018-05-26T00:23:15.048Z,1009.59
2018-05-26T00:24:14.985Z,1009.58
2018-05-26T00:25:15.034Z,1009.57
2018-05-26T00:26:15.151Z,1009.58
2018-05-26T00:27:15.076Z,1009.55
2018-05-26T00:28:15.103Z,1009.57
2018-05-26T00:29:15.029Z,1009.55
2018-05-26T00:30:15.104Z,1009.58
2018-05-26T00:31:15.032Z,1009.55
2018-05-26T00:32:15.133Z,1009.58
2018-05-26T00:33:15.027Z,1009.59
2018-05-26T00:34:15.111Z,1009.58
2018-05-26T00:35:15.113Z,1009.57
2018-05-26T00:36:15.026Z,1009.60
2018-05-26T00:37:15.102Z,1009.61
2018-05-26T00:38:15.046Z,1009.64
2018-05-26T00:39:15.089Z,1009.63
2018-05-26T00:40:15.135Z,1009.63
2018-05-26T00:41:15.073Z,1009.65
2018-05-26T00:42:15.107Z,1009.62
2018-05-26T00:43:15.127Z,1009.57
2018-05-26T00:44:15.146Z,1009.59
2018-05-26T00:45:15.107Z,1009.57
2018-05-26T00:46:15.034Z,1009.63
2018-05-26T00:47:15.133Z,1009.60
2018-05-26T00:48:15.147Z,1009.60
2018-05-26T00:49:15.083Z,1009.59
2018-05-26T00:50:15.073Z,1009.60
2018-05-26T00:51:15.144Z,1009.65
2018-05-26T00:52:15.058Z,1009.62
2018-05-26T00:53:15.082Z,1009.68
2018-05-26T00:54:15.093Z,1009.68
2018-05-26T00:55:15.157Z,1009.70
2018-05-26T00:56:15.141Z,1009.71
2018-05-26T00:57:15.121Z,1009.68
2018-05-26T00:58:15.025Z,1009.70
2018-05-26T00:59:15.142Z,1009.72
2018-05-26T01:00:15.140Z,1009.72
2018-05-26T01:01:15.087Z,1009.73
2018-05-26T01:02:15.125Z,1009.75
2018-05-26T01:03:15.093Z,1009.75
2018-05-26T01:04:15.124Z,1009.76
2018-05-26T01:05:15.285Z,1009.74
2018-05-26T01:06:15.128Z,1009.78
2018-05-26T01:07:15.058Z,1009.77
2018-05-26T01:08:15.062Z,1009.80
2018-05-26T01:09:15.016Z,1009.78
2018-05-26T01:10:15.131Z,1009.83
2018-05-26T01:11:15.059Z,1009.84
2018-05-26T01:12:15.053Z,1009.84
2018-05-26T01:13:15.122Z,1009.86
2018-05-26T01:14:15.082Z,1009.89
2018-05-26T01:15:15.055Z,1009.87
2018-05-26T01:16:15.124Z,1009.88
2018-05-26T01:17:15.056Z,1009.89
2018-05-26T01:18:15.126Z,1009.89
2018-05-26T01:19:15.055Z,1009.90
2018-05-26T01:20:15.126Z,1009.87
2018-05-26T01:21:15.056Z,1009.86
2018-05-26T01:22:15.132Z,1009.88
2018-05-26T01:23:15.117Z,1009.83
2018-05-26T01:24:15.137Z,1009.86
2018-05-26T01:25:15.135Z,1009.86
2018-05-26T01:26:15.037Z,1009.85
2018-05-26T01:27:15.120Z,1009.82
2018-05-26T01:28:15.115Z,1009.83
2018-05-26T01:29:15.099Z,1009.86
2018-05-26T01:30:15.141Z,1009.85
2018-05-26T01:31:15.175Z,1009.88
2018-05-26T01:32:15.163Z,1009.88
2018-05-26T01:33:15.142Z,1009.88
2018-05-26T01:34:15.103Z,1009.90
2018-05-26T01:35:15.146Z,1009.91
2018-05-26T01:36:15.151Z,1009.89
2018-05-26T01:37:15.065Z,1009.95
2018-05-26T01:38:15.050Z,1009.96
2018-05-26T01:39:15.063Z,1009.94
2018-05-26T01:40:15.113Z,1009.93
2018-05-26T01:41:15.107Z,1009.95
2018-05-26T01:42:15.145Z,1009.98
2018-05-26T01:43:15.128Z,1009.95
2018-05-26T01:44:15.186Z,1010.01
2018-05-26T01:45:15.086Z,1009.96
2018-05-26T01:46:15.146Z,1009.93
2018-05-26T01:47:15.208Z,1009.94
2018-05-26T01:48:15.108Z,1009.98
2018-05-26T01:49:15.089Z,1009.92
2018-05-26T01:50:15.172Z,1009.91
2018-05-26T01:51:15.191Z,1009.88
2018-05-26T01:52:15.149Z,1009.89
2018-05-26T01:53:15.107Z,1009.88
2018-05-26T01:54:15.072Z,1009.87
2018-05-26T01:55:15.149Z,1009.89
2018-05-26T01:56:15.076Z,1009.94
2018-05-26T01:57:15.153Z,1009.93
2018-05-26T01:58:15.151Z,1009.90
2018-05-26T01:59:15.081Z,1009.93
2018-05-26T02:00:15.153Z,1009.93
2018-05-26T02:01:15.155Z,1009.88
2018-05-26T02:02:15.136Z,1009.89
2018-05-26T02:03:15.159Z,1009.87
2018-05-26T02:04:15.125Z,1009.84
2018-05-26T02:05:15.224Z,1009.88
2018-05-26T02:06:15.180Z,1009.87
2018-05-26T02:07:15.175Z,1009.82
2018-05-26T02:08:15.189Z,1009.83
2018-05-26T02:09:15.134Z,1009.85
2018-05-26T02:10:15.199Z,1009.85
2018-05-26T02:11:15.226Z,1009.83
2018-05-26T02:12:15.105Z,1009.84
2018-05-26T02:13:15.136Z,1009.85
2018-05-26T02:14:15.227Z,1009.86
2018-05-26T02:15:15.110Z,1009.92
2018-05-26T02:16:15.093Z,1009.88
2018-05-26T02:17:15.152Z,1009.88
2018-05-26T02:18:15.205Z,1009.83
2018-05-26T02:19:15.144Z,1009.84
2018-05-26T02:20:15.196Z,1009.84
2018-05-26T02:21:15.188Z,1009.82
2018-05-26T02:22:15.180Z,1009.81
2018-05-26T02:23:15.201Z,1009.84
2018-05-26T02:24:15.113Z,1009.83
2018-05-26T02:25:15.116Z,1009.84
2018-05-26T02:26:15.083Z,1009.85
2018-05-26T02:27:15.187Z,1009.82
2018-05-26T02:28:15.154Z,1009.83
2018-05-26T02:29:15.138Z,1009.79
2018-05-26T02:30:15.252Z,1009.80
2018-05-26T02:31:15.212Z,1009.82
2018-05-26T02:32:15.159Z,1009.79
2018-05-26T02:33:15.119Z,1009.81
2018-05-26T02:34:15.141Z,1009.82
2018-05-26T02:35:15.156Z,1009.80
2018-05-26T02:36:15.200Z,1009.79
2018-05-26T02:37:15.184Z,1009.83
2018-05-26T02:38:15.161Z,1009.82
2018-05-26T02:39:15.151Z,1009.85
2018-05-26T02:40:15.104Z,1009.82
2018-05-26T02:41:15.122Z,1009.85
2018-05-26T02:42:15.228Z,1009.85
2018-05-26T02:43:15.189Z,1009.87
2018-05-26T02:44:15.246Z,1009.82
2018-05-26T02:45:15.187Z,1009.79
2018-05-26T02:46:15.192Z,1009.83
2018-05-26T02:47:15.191Z,1009.84
2018-05-26T02:48:15.214Z,1009.84
2018-05-26T02:49:15.249Z,1009.84
2018-05-26T02:50:15.224Z,1009.84
2018-05-26T02:51:15.109Z,1009.87
2018-05-26T02:52:15.155Z,1009.87
2018-05-26T02:53:15.147Z,1009.84
2018-05-26T02:54:15.169Z,1009.85
2018-05-26T02:55:15.133Z,1009.83
2018-05-26T02:56:15.124Z,1009.83
2018-05-26T02:57:15.218Z,1009.82
2018-05-26T02:58:15.257Z,1009.81
2018-05-26T02:59:15.203Z,1009.83
2018-05-26T03:00:15.129Z,1009.84
2018-05-26T03:01:15.206Z,1009.83
2018-05-26T03:02:15.131Z,1009.85
2018-05-26T03:03:15.205Z,1009.83
2018-05-26T03:04:15.134Z,1009.83
2018-05-26T03:05:15.093Z,1009.81
2018-05-26T03:06:15.205Z,1009.84
2018-05-26T03:07:15.161Z,1009.86
2018-05-26T03:08:15.135Z,1009.82
2018-05-26T03:09:15.211Z,1009.82
2018-05-26T03:10:15.204Z,1009.86
2018-05-26T03:11:15.097Z,1009.84
2018-05-26T03:12:15.250Z,1009.82
2018-05-26T03:13:15.194Z,1009.79
2018-05-26T03:14:15.266Z,1009.80
2018-05-26T03:15:15.174Z,1009.82
2018-05-26T03:16:15.247Z,1009.81
2018-05-26T03:17:15.148Z,1009.76
2018-05-26T03:18:15.199Z,1009.78
2018-05-26T03:19:15.247Z,1009.79
2018-05-26T03:20:15.182Z,1009.74
2018-05-26T03:21:15.185Z,1009.76
2018-05-26T03:22:15.209Z,1009.81
2018-05-26T03:23:15.187Z,1009.76
2018-05-26T03:24:15.244Z,1009.77
2018-05-26T03:25:15.179Z,1009.78
2018-05-26T03:26:15.157Z,1009.80
2018-05-26T03:27:15.170Z,1009.75
2018-05-26T03:28:15.215Z,1009.75
2018-05-26T03:29:15.136Z,1009.75
2018-05-26T03:30:15.221Z,1009.80
2018-05-26T03:31:15.193Z,1009.79
2018-05-26T03:32:15.240Z,1009.79
2018-05-26T03:33:15.135Z,1009.80
2018-05-26T03:34:15.234Z,1009.78
2018-05-26T03:35:15.138Z,1009.82
2018-05-26T03:36:15.238Z,1009.83
2018-05-26T03:37:15.144Z,1009.86
2018-05-26T03:38:15.192Z,1009.84
2018-05-26T03:39:15.194Z,1009.87
2018-05-26T03:40:15.221Z,1009.87
2018-05-26T03:41:15.241Z,1009.88
2018-05-26T03:42:15.236Z,1009.87
2018-05-26T03:43:15.162Z,1009.89
2018-05-26T03:44:15.128Z,1009.87
2018-05-26T03:45:15.189Z,1009.91
2018-05-26T03:46:15.259Z,1009.92
2018-05-26T03:47:15.244Z,1009.88
2018-05-26T03:48:15.151Z,1009.93
2018-05-26T03:49:15.145Z,1009.91
2018-05-26T03:50:15.259Z,1009.91
2018-05-26T03:51:15.200Z,1009.89
2018-05-26T03:52:15.228Z,1009.92
2018-05-26T03:53:15.159Z,1009.92
2018-05-26T03:54:15.226Z,1009.92
2018-05-26T03:55:15.231Z,1009.90
2018-05-26T03:56:15.231Z,1009.92
2018-05-26T03:57:15.234Z,1009.96
2018-05-26T03:58:15.234Z,1009.95
2018-05-26T03:59:15.244Z,1009.98
2018-05-26T04:00:15.193Z,1009.96
2018-05-26T04:01:15.237Z,1009.92
2018-05-26T04:02:15.276Z,1009.98
2018-05-26T04:03:15.174Z,1009.98
2018-05-26T04:04:15.147Z,1009.98
2018-05-26T04:05:15.277Z,1009.98
2018-05-26T04:06:15.263Z,1009.99
2018-05-26T04:07:15.268Z,1009.96
2018-05-26T04:08:15.149Z,1009.99
2018-05-26T04:09:15.211Z,1009.99
2018-05-26T04:10:15.239Z,1010.00
2018-05-26T04:11:15.237Z,1010.01
2018-05-26T04:12:15.219Z,1009.97
2018-05-26T04:13:15.239Z,1010.00
2018-05-26T04:14:15.216Z,1010.00
2018-05-26T04:15:15.325Z,1010.03
2018-05-26T04:16:15.245Z,1010.06
2018-05-26T04:17:15.226Z,1010.05
2018-05-26T04:18:15.189Z,1010.03
2018-05-26T04:19:15.276Z,1010.03
2018-05-26T04:20:15.226Z,1010.06
2018-05-26T04:21:15.248Z,1010.08
2018-05-26T04:22:15.181Z,1010.07
2018-05-26T04:23:15.182Z,1010.12
2018-05-26T04:24:15.249Z,1010.13
2018-05-26T04:25:15.183Z,1010.15
2018-05-26T04:26:15.210Z,1010.16
2018-05-26T04:27:15.256Z,1010.19
2018-05-26T04:28:15.243Z,1010.23
2018-05-26T04:29:15.227Z,1010.21
2018-05-26T04:30:15.257Z,1010.24
2018-05-26T04:31:15.190Z,1010.26
2018-05-26T04:32:15.193Z,1010.27
2018-05-26T04:33:15.160Z,1010.30
2018-05-26T04:34:15.263Z,1010.26
2018-05-26T04:35:15.184Z,1010.30
2018-05-26T04:36:15.260Z,1010.27
2018-05-26T04:37:15.183Z,1010.29
2018-05-26T04:38:15.280Z,1010.29
2018-05-26T04:39:15.263Z,1010.28
2018-05-26T04:40:15.305Z,1010.35
2018-05-26T04:41:15.279Z,1010.36
2018-05-26T04:42:15.269Z,1010.37
2018-05-26T04:43:15.164Z,1010.36
2018-05-26T04:44:15.277Z,1010.40
2018-05-26T04:45:15.191Z,1010.40
2018-05-26T04:46:15.226Z,1010.41
2018-05-26T04:47:15.298Z,1010.42
2018-05-26T04:48:15.302Z,1010.41
2018-05-26T04:49:15.250Z,1010.43
2018-05-26T04:50:15.223Z,1010.47
2018-05-26T04:51:15.286Z,1010.43
2018-05-26T04:52:15.202Z,1010.46
2018-05-26T04:53:15.273Z,1010.50
2018-05-26T04:54:15.201Z,1010.50
2018-05-26T04:55:15.271Z,1010.50
2018-05-26T04:56:15.236Z,1010.46
2018-05-26T04:57:15.220Z,1010.49
2018-05-26T04:58:15.205Z,1010.51
2018-05-26T04:59:15.207Z,1010.49
2018-05-26T05:00:15.275Z,1010.54
2018-05-26T05:01:15.279Z,1010.52
2018-05-26T05:02:15.259Z,1010.52
2018-05-26T05:03:15.272Z,1010.51
2018-05-26T05:04:15.312Z,1010.51
2018-05-26T05:05:15.299Z,1010.53
2018-05-26T05:06:15.297Z,1010.56
2018-05-26T05:07:15.243Z,1010.53
2018-05-26T05:08:15.280Z,1010.54
2018-05-26T05:09:15.281Z,1010.54
2018-05-26T05:10:15.217Z,1010.57
2018-05-26T05:11:15.302Z,1010.58
2018-05-26T05:12:15.302Z,1010.58
2018-05-26T05:13:15.319Z,1010.57
2018-05-26T05:14:15.366Z,1010.59
2018-05-26T05:15:15.312Z,1010.60
2018-05-26T05:16:15.316Z,1010.59
2018-05-26T05:17:15.323Z,1010.56
2018-05-26T05:18:15.255Z,1010.62
2018-05-26T05:19:15.307Z,1010.57
2018-05-26T05:20:15.286Z,1010.60
2018-05-26T05:21:15.292Z,1010.56
2018-05-26T05:22:15.221Z,1010.61
2018-05-26T05:23:15.293Z,1010.56
2018-05-26T05:24:15.290Z,1010.58
2018-05-26T05:25:15.295Z,1010.57
2018-05-26T05:26:15.302Z,1010.60
2018-05-26T05:27:15.229Z,1010.62
2018-05-26T05:28:15.294Z,1010.63
2018-05-26T05:29:15.297Z,1010.64
2018-05-26T05:30:15.297Z,1010.62
2018-05-26T05:31:15.229Z,1010.63
2018-05-26T05:32:15.331Z,1010.66
2018-05-26T05:33:15.312Z,1010.67
2018-05-26T05:34:15.322Z,1010.71
2018-05-26T05:35:15.277Z,1010.65
2018-05-26T05:36:15.257Z,1010.66
2018-05-26T05:37:15.297Z,1010.66
2018-05-26T05:38:15.300Z,1010.66
2018-05-26T05:39:15.218Z,1010.66
2018-05-26T05:40:15.257Z,1010.67
2018-05-26T05:41:15.336Z,1010.68
2018-05-26T05:42:15.316Z,1010.66
2018-05-26T05:43:15.301Z,1010.64
2018-05-26T05:44:15.240Z,1010.67
2018-05-26T05:45:15.324Z,1010.63
2018-05-26T05:46:15.225Z,1010.64
2018-05-26T05:47:15.322Z,1010.67
2018-05-26T05:48:15.269Z,1010.65
2018-05-26T05:49:15.245Z,1010.67
2018-05-26T05:50:15.211Z,1010.65
2018-05-26T05:51:15.288Z,1010.64
2018-05-26T05:52:15.308Z,1010.65
2018-05-26T05:53:15.240Z,1010.66
2018-05-26T05:54:15.243Z,1010.68
2018-05-26T05:55:15.310Z,1010.68
2018-05-26T05:56:15.344Z,1010.73
2018-05-26T05:57:15.242Z,1010.73
2018-05-26T05:58:15.244Z,1010.74
2018-05-26T05:59:15.316Z,1010.71
2018-05-26T06:00:15.244Z,1010.74
2018-05-26T06:01:15.315Z,1010.78
2018-05-26T06:02:15.313Z,1010.76
2018-05-26T06:03:15.289Z,1010.77
2018-05-26T06:04:15.288Z,1010.77
2018-05-26T06:05:15.218Z,1010.77
2018-05-26T06:06:15.318Z,1010.81
2018-05-26T06:07:15.279Z,1010.81
2018-05-26T06:08:15.351Z,1010.83
2018-05-26T06:09:15.360Z,1010.78
2018-05-26T06:10:15.216Z,1010.86
2018-05-26T06:11:15.401Z,1010.81
2018-05-26T06:12:15.292Z,1010.79
2018-05-26T06:13:15.313Z,1010.82
2018-05-26T06:14:15.314Z,1010.79
2018-05-26T06:15:15.310Z,1010.81
2018-05-26T06:16:15.316Z,1010.80
2018-05-26T06:17:15.315Z,1010.78
2018-05-26T06:18:15.203Z,1010.81
2018-05-26T06:19:15.198Z,1010.78
2018-05-26T06:20:15.254Z,1010.79
2018-05-26T06:21:15.252Z,1010.80
2018-05-26T06:22:15.323Z,1010.80
2018-05-26T06:23:15.223Z,1010.77
2018-05-26T06:24:15.259Z,1010.78
2018-05-26T06:25:15.328Z,1010.75
2018-05-26T06:26:15.332Z,1010.77
2018-05-26T06:27:15.265Z,1010.79
2018-05-26T06:28:15.330Z,1010.79
2018-05-26T06:29:15.332Z,1010.79
2018-05-26T06:30:15.271Z,1010.81
2018-05-26T06:31:15.266Z,1010.81
2018-05-26T06:32:15.269Z,1010.83
2018-05-26T06:33:15.270Z,1010.78
2018-05-26T06:34:15.239Z,1010.84
2018-05-26T06:35:15.215Z,1010.83
2018-05-26T06:36:15.269Z,1010.85
2018-05-26T06:37:15.276Z,1010.81
2018-05-26T06:38:15.297Z,1010.86
2018-05-26T06:39:15.261Z,1010.86
2018-05-26T06:40:15.334Z,1010.85
2018-05-26T06:41:15.335Z,1010.83
2018-05-26T06:42:15.268Z,1010.87
2018-05-26T06:43:15.349Z,1010.89
2018-05-26T06:44:15.364Z,1010.90
2018-05-26T06:45:15.286Z,1010.88
2018-05-26T06:46:15.302Z,1010.88
2018-05-26T06:47:15.370Z,1010.86
2018-05-26T06:48:15.261Z,1010.87
2018-05-26T06:49:15.344Z,1010.91
2018-05-26T06:50:15.269Z,1010.88
2018-05-26T06:51:15.288Z,1010.90
2018-05-26T06:52:15.267Z,1010.87
2018-05-26T06:53:15.322Z,1010.87
2018-05-26T06:54:15.382Z,1010.85
2018-05-26T06:55:15.315Z,1010.85
2018-05-26T06:56:15.368Z,1010.86
2018-05-26T06:57:15.381Z,1010.84
2018-05-26T06:58:15.355Z,1010.86
2018-05-26T06:59:15.272Z,1010.84
2018-05-26T07:00:15.364Z,1010.88
2018-05-26T07:01:15.276Z,1010.88
2018-05-26T07:02:15.256Z,1010.89
2018-05-26T07:03:15.358Z,1010.89
2018-05-26T07:04:15.395Z,1010.85
2018-05-26T07:05:15.310Z,1010.83
2018-05-26T07:06:15.332Z,1010.84
2018-05-26T07:07:15.399Z,1010.85
2018-05-26T07:08:15.278Z,1010.85
2018-05-26T07:09:15.362Z,1010.87
2018-05-26T07:10:15.280Z,1010.84
2018-05-26T07:11:15.417Z,1010.83
2018-05-26T07:12:15.326Z,1010.86
2018-05-26T07:13:15.438Z,1010.86
2018-05-26T07:14:15.298Z,1010.88
2018-05-26T07:15:15.362Z,1010.88
2018-05-26T07:16:15.391Z,1010.88
2018-05-26T07:17:15.303Z,1010.90
2018-05-26T07:18:15.383Z,1010.86
2018-05-26T07:19:15.383Z,1010.86
2018-05-26T07:20:15.405Z,1010.83
2018-05-26T07:21:15.364Z,1010.87
2018-05-26T07:22:15.400Z,1010.84
2018-05-26T07:23:15.320Z,1010.82
2018-05-26T07:24:15.314Z,1010.81
2018-05-26T07:25:15.269Z,1010.83
2018-05-26T07:26:15.346Z,1010.81
2018-05-26T07:27:15.320Z,1010.84
2018-05-26T07:28:15.245Z,1010.79
2018-05-26T07:29:15.327Z,1010.76
2018-05-26T07:30:15.295Z,1010.75
2018-05-26T07:31:15.319Z,1010.70
2018-05-26T07:32:15.356Z,1010.74
2018-05-26T07:33:15.336Z,1010.76
2018-05-26T07:34:15.344Z,1010.74
2018-05-26T07:35:15.353Z,1010.76
2018-05-26T07:36:15.312Z,1010.75
2018-05-26T07:37:15.347Z,1010.77
2018-05-26T07:38:15.340Z,1010.75
2018-05-26T07:39:15.407Z,1010.78
2018-05-26T07:40:15.299Z,1010.75
2018-05-26T07:41:15.354Z,1010.77
2018-05-26T07:42:15.403Z,1010.72
2018-05-26T07:43:15.410Z,1010.75
2018-05-26T07:44:15.296Z,1010.75
2018-05-26T07:45:15.351Z,1010.72
2018-05-26T07:46:15.394Z,1010.71
2018-05-26T07:47:15.427Z,1010.71
2018-05-26T07:48:15.340Z,1010.69
2018-05-26T07:49:15.303Z,1010.68
2018-05-26T07:50:15.426Z,1010.68
2018-05-26T07:51:15.322Z,1010.65
2018-05-26T07:52:15.419Z,1010.71
2018-05-26T07:53:15.327Z,1010.67
2018-05-26T07:54:15.316Z,1010.67
2018-05-26T07:55:15.379Z,1010.70
2018-05-26T07:56:15.384Z,1010.67
2018-05-26T07:57:15.319Z,1010.65
2018-05-26T07:58:15.353Z,1010.63
2018-05-26T07:59:15.392Z,1010.59
2018-05-26T08:00:15.321Z,1010.63
2018-05-26T08:01:15.389Z,1010.61
2018-05-26T08:02:15.353Z,1010.62
2018-05-26T08:03:15.388Z,1010.61
2018-05-26T08:04:15.332Z,1010.64
2018-05-26T08:05:15.389Z,1010.62
2018-05-26T08:06:15.327Z,1010.60
2018-05-26T08:07:15.391Z,1010.63
2018-05-26T08:08:15.347Z,1010.62
2018-05-26T08:09:15.329Z,1010.60
2018-05-26T08:10:15.397Z,1010.57
2018-05-26T08:11:15.328Z,1010.57
2018-05-26T08:12:15.396Z,1010.61
2018-05-26T08:13:15.398Z,1010.59
2018-05-26T08:14:15.397Z,1010.57
2018-05-26T08:15:15.374Z,1010.56
2018-05-26T08:16:15.373Z,1010.59
2018-05-26T08:17:15.413Z,1010.56
2018-05-26T08:18:15.419Z,1010.55
2018-05-26T08:19:15.323Z,1010.58
2018-05-26T08:20:15.380Z,1010.57
2018-05-26T08:21:15.441Z,1010.57
2018-05-26T08:22:15.426Z,1010.56
2018-05-26T08:23:15.401Z,1010.55
2018-05-26T08:24:15.403Z,1010.54
2018-05-26T08:25:15.339Z,1010.54
2018-05-26T08:26:15.404Z,1010.54
2018-05-26T08:27:15.408Z,1010.50
2018-05-26T08:28:15.405Z,1010.47
2018-05-26T08:29:15.350Z,1010.45
2018-05-26T08:30:15.411Z,1010.46
2018-05-26T08:31:15.341Z,1010.50
2018-05-26T08:32:15.410Z,1010.50
2018-05-26T08:33:15.311Z,1010.47
2018-05-26T08:34:15.402Z,1010.47
2018-05-26T08:35:15.404Z,1010.49
2018-05-26T08:36:15.314Z,1010.51
2018-05-26T08:37:15.408Z,1010.46
2018-05-26T08:38:15.359Z,1010.49
2018-05-26T08:39:15.412Z,1010.50
2018-05-26T08:40:15.364Z,1010.49
2018-05-26T08:41:15.426Z,1010.46
2018-05-26T08:42:15.409Z,1010.44
2018-05-26T08:43:15.391Z,1010.46
2018-05-26T08:44:15.437Z,1010.46
2018-05-26T08:45:15.317Z,1010.49
2018-05-26T08:46:15.445Z,1010.51
2018-05-26T08:47:15.381Z,1010.49
2018-05-26T08:48:15.419Z,1010.52
2018-05-26T08:49:15.458Z,1010.51
2018-05-26T08:50:15.458Z,1010.51
2018-05-26T08:51:15.394Z,1010.55
2018-05-26T08:52:15.439Z,1010.52
2018-05-26T08:53:15.356Z,1010.51
2018-05-26T08:54:15.357Z,1010.51
2018-05-26T08:55:15.426Z,1010.50
2018-05-26T08:56:15.425Z,1010.50
2018-05-26T08:57:15.325Z,1010.47
2018-05-26T08:58:15.428Z,1010.53
2018-05-26T08:59:15.372Z,1010.51
2018-05-26T09:00:15.430Z,1010.52
2018-05-26T09:01:15.364Z,1010.53
2018-05-26T09:02:15.425Z,1010.55
2018-05-26T09:03:15.362Z,1010.50
2018-05-26T09:04:15.363Z,1010.52
2018-05-26T09:05:15.428Z,1010.54
2018-05-26T09:06:15.368Z,1010.55
2018-05-26T09:07:15.436Z,1010.55
2018-05-26T09:08:15.368Z,1010.59
2018-05-26T09:09:15.523Z,1010.52
2018-05-26T09:10:15.435Z,1010.52
2018-05-26T09:11:15.391Z,1010.56
2018-05-26T09:12:15.433Z,1010.56
2018-05-26T09:13:15.300Z,1010.57
2018-05-26T09:14:15.330Z,1010.56
2018-05-26T09:15:15.417Z,1010.58
2018-05-26T09:16:15.402Z,1010.55
2018-05-26T09:17:15.328Z,1010.57
2018-05-26T09:18:15.328Z,1010.50
2018-05-26T09:19:15.397Z,1010.55
2018-05-26T09:20:15.317Z,1010.54
2018-05-26T09:21:15.393Z,1010.55
2018-05-26T09:22:15.377Z,1010.53
2018-05-26T09:23:15.418Z,1010.54
2018-05-26T09:24:15.340Z,1010.57
2018-05-26T09:25:15.537Z,1010.56
2018-05-26T09:26:15.446Z,1010.57
2018-05-26T09:27:15.472Z,1010.50
2018-05-26T09:28:15.485Z,1010.48
2018-05-26T09:29:15.447Z,1010.48
2018-05-26T09:30:15.484Z,1010.53
2018-05-26T09:31:15.530Z,1010.47
2018-05-26T09:32:15.444Z,1010.45
2018-05-26T09:33:15.450Z,1010.47
2018-05-26T09:34:15.390Z,1010.52
2018-05-26T09:35:15.476Z,1010.52
2018-05-26T09:36:15.353Z,1010.51
2018-05-26T09:37:15.361Z,1010.50
2018-05-26T09:38:15.411Z,1010.53
2018-05-26T09:39:15.473Z,1010.49
2018-05-26T09:40:15.356Z,1010.50
2018-05-26T09:41:15.478Z,1010.47
2018-05-26T09:42:15.425Z,1010.51
2018-05-26T09:43:15.434Z,1010.50
2018-05-26T09:44:15.456Z,1010.51
2018-05-26T09:45:15.436Z,1010.53
2018-05-26T09:46:15.454Z,1010.52
2018-05-26T09:47:15.460Z,1010.53
2018-05-26T09:48:15.416Z,1010.46
2018-05-26T09:49:15.479Z,1010.48
2018-05-26T09:50:15.477Z,1010.48
2018-05-26T09:51:15.358Z,1010.49
2018-05-26T09:52:15.458Z,1010.45
2018-05-26T09:53:15.424Z,1010.48
2018-05-26T09:54:15.362Z,1010.44
2018-05-26T09:55:15.365Z,1010.42
2018-05-26T09:56:15.465Z,1010.46
2018-05-26T09:57:15.485Z,1010.46
2018-05-26T09:58:15.444Z,1010.44
2018-05-26T09:59:15.369Z,1010.42
2018-05-26T10:00:15.484Z,1010.42
2018-05-26T10:01:15.374Z,1010.43
2018-05-26T10:02:15.494Z,1010.40
2018-05-26T10:03:15.401Z,1010.45
2018-05-26T10:04:15.428Z,1010.42
2018-05-26T10:06:15.422Z,1010.41
2018-05-26T10:07:15.455Z,1010.40
2018-05-26T10:08:15.425Z,1010.41
2018-05-26T10:09:15.463Z,1010.45
2018-05-26T10:10:15.470Z,1010.48
2018-05-26T10:11:15.378Z,1010.44
2018-05-26T10:12:15.476Z,1010.41
2018-05-26T10:13:15.445Z,1010.44
2018-05-26T10:14:15.449Z,1010.44
2018-05-26T10:15:15.441Z,1010.47
2018-05-26T10:16:15.514Z,1010.46
2018-05-26T10:17:15.451Z,1010.50
2018-05-26T10:18:15.463Z,1010.48
2018-05-26T10:19:15.382Z,1010.52
2018-05-26T10:20:15.460Z,1010.49
2018-05-26T10:21:15.450Z,1010.47
2018-05-26T10:22:15.500Z,1010.50
2018-05-26T10:23:15.429Z,1010.48
2018-05-26T10:24:15.498Z,1010.42
2018-05-26T10:25:15.466Z,1010.48
2018-05-26T10:26:15.397Z,1010.48
2018-05-26T10:27:15.515Z,1010.47
2018-05-26T10:28:15.393Z,1010.50
2018-05-26T10:29:15.505Z,1010.55
2018-05-26T10:30:15.503Z,1010.53
2018-05-26T10:31:15.462Z,1010.55
2018-05-26T10:32:15.476Z,1010.52
2018-05-26T10:33:15.470Z,1010.53
2018-05-26T10:34:15.530Z,1010.55
2018-05-26T10:35:15.516Z,1010.57
2018-05-26T10:36:15.531Z,1010.57
2018-05-26T10:37:15.513Z,1010.49
2018-05-26T10:38:15.517Z,1010.57
2018-05-26T10:39:15.520Z,1010.49
2018-05-26T10:40:15.467Z,1010.52
2018-05-26T10:41:15.471Z,1010.50
2018-05-26T10:42:15.496Z,1010.50
2018-05-26T10:43:15.431Z,1010.49
2018-05-26T10:44:15.495Z,1010.47
2018-05-26T10:45:15.430Z,1010.50
2018-05-26T10:46:15.498Z,1010.51
2018-05-26T10:47:15.500Z,1010.48
2018-05-26T10:48:15.503Z,1010.51
2018-05-26T10:49:15.499Z,1010.48
2018-05-26T10:50:15.503Z,1010.49
2018-05-26T10:51:15.499Z,1010.43
2018-05-26T10:52:15.566Z,1010.43
2018-05-26T10:53:15.360Z,1010.44
2018-05-26T10:54:15.450Z,1010.40
2018-05-26T10:55:15.489Z,1010.46
2018-05-26T10:56:15.400Z,1010.46
2018-05-26T10:57:15.398Z,1010.44
2018-05-26T10:58:15.491Z,1010.43
2018-05-26T10:59:15.435Z,1010.46
2018-05-26T11:00:15.395Z,1010.39
2018-05-26T11:01:15.399Z,1010.40
2018-05-26T11:02:15.405Z,1010.42
2018-05-26T11:03:15.528Z,1010.38
2018-05-26T11:04:15.594Z,1010.39
2018-05-26T11:05:15.489Z,1010.41
2018-05-26T11:06:15.546Z,1010.43
2018-05-26T11:07:15.534Z,1010.45
2018-05-26T11:08:15.541Z,1010.44
2018-05-26T11:09:15.533Z,1010.46
2018-05-26T11:10:15.531Z,1010.45
2018-05-26T11:11:15.484Z,1010.39
2018-05-26T11:12:15.414Z,1010.43
2018-05-26T11:13:15.448Z,1010.33
2018-05-26T11:14:15.511Z,1010.39
2018-05-26T11:15:15.452Z,1010.36
2018-05-26T11:16:15.760Z,1010.35
2018-05-26T11:17:15.450Z,1010.40
2018-05-26T11:18:15.517Z,1010.36
2018-05-26T11:19:15.452Z,1010.35
2018-05-26T11:20:15.537Z,1010.32
2018-05-26T11:21:15.548Z,1010.33
2018-05-26T11:22:15.522Z,1010.33
2018-05-26T11:23:15.504Z,1010.30
2018-05-26T11:24:15.644Z,1010.32
2018-05-26T11:25:15.425Z,1010.29
2018-05-26T11:26:15.528Z,1010.30
2018-05-26T11:27:15.491Z,1010.29
2018-05-26T11:28:15.494Z,1010.34
2018-05-26T11:29:15.528Z,1010.32
2018-05-26T11:30:15.495Z,1010.30
2018-05-26T11:31:15.545Z,1010.35
2018-05-26T11:32:15.493Z,1010.32
2018-05-26T11:33:15.543Z,1010.34
2018-05-26T11:34:15.548Z,1010.32
2018-05-26T11:35:15.494Z,1010.34
2018-05-26T11:36:15.554Z,1010.33
2018-05-26T11:37:15.436Z,1010.31
2018-05-26T11:38:15.558Z,1010.31
2018-05-26T11:39:15.553Z,1010.31
2018-05-26T11:40:15.536Z,1010.31
2018-05-26T11:41:15.544Z,1010.29
2018-05-26T11:42:15.505Z,1010.36
2018-05-26T11:43:15.531Z,1010.34
2018-05-26T11:44:15.498Z,1010.43
2018-05-26T11:45:15.579Z,1010.44
2018-05-26T11:46:15.559Z,1010.37
2018-05-26T11:47:15.497Z,1010.40
2018-05-26T11:48:15.571Z,1010.38
2018-05-26T11:49:15.564Z,1010.35
2018-05-26T11:50:15.566Z,1010.35
2018-05-26T11:51:15.575Z,1010.32
2018-05-26T11:52:15.448Z,1010.32
2018-05-26T11:53:15.527Z,1010.27
2018-05-26T11:54:15.538Z,1010.32
2018-05-26T11:55:15.532Z,1010.31
2018-05-26T11:56:15.536Z,1010.26
2018-05-26T11:57:15.538Z,1010.25
2018-05-26T11:58:15.452Z,1010.24
2018-05-26T11:59:15.537Z,1010.28
2018-05-26T12:00:15.429Z,1010.27
2018-05-26T12:01:15.454Z,1010.26
2018-05-26T12:02:15.546Z,1010.25
2018-05-26T12:03:15.576Z,1010.25
2018-05-26T12:04:15.575Z,1010.25
2018-05-26T12:05:15.572Z,1010.16
2018-05-26T12:06:15.560Z,1010.15